sensor_id;sensor_type;location;lat;lon;timestamp;pressure;altitude;pressure_sealevel;temperature;humidity
32492;BME280;20605;49.742;18.802;2023-03-16T00:01:38;97997.98;;;1.77;100.00
32492;BME280;20605;49.742;18.802;2023-03-16T00:04:04;97999.48;;;1.72;100.00
32492;BME280;20605;49.742;18.802;2023-03-16T00:06:30;98002.39;;;1.71;100.00
32492;BME280;20605;49.742;18.802;2023-03-16T00:08:56;98007.02;;;1.72;100.00
32492;BME280;20605;49.742;18.802;2023-03-16T00:11:27;98006.67;;;1.72;100.00
32492;BME280;20605;49.742;18.802;2023-03-16T00:13:54;98006.69;;;1.73;100.00
32492;BME280;20605;49.742;18.802;2023-03-16T00:16:19;98011.16;;;1.78;100.00
32492;BME280;20605;49.742;18.802;2023-03-16T00:18:45;98013.61;;;1.86;100.00
32492;BME280;20605;49.742;18.802;2023-03-16T00:21:12;98012.78;;;1.89;100.00
32492;BME280;20605;49.742;18.802;2023-03-16T00:23:39;98014.52;;;1.92;100.00
32492;BME280;20605;49.742;18.802;2023-03-16T00:26:08;98014.52;;;1.94;100.00
32492;BME280;20605;49.742;18.802;2023-03-16T00:28:35;98016.23;;;1.96;100.00
32492;BME280;20605;49.742;18.802;2023-03-16T00:31:03;98020.33;;;1.92;100.00
32492;BME280;20605;49.742;18.802;2023-03-16T00:33:29;98020.14;;;1.89;100.00
32492;BME280;20605;49.742;18.802;2023-03-16T00:36:00;98021.50;;;1.88;100.00
32492;BME280;20605;49.742;18.802;2023-03-16T00:38:37;98022.53;;;1.88;100.00
32492;BME280;20605;49.742;18.802;2023-03-16T00:41:05;98021.49;;;1.87;100.00
32492;BME280;20605;49.742;18.802;2023-03-16T00:43:35;98026.63;;;1.86;100.00
32492;BME280;20605;49.742;18.802;2023-03-16T00:46:07;98026.95;;;1.82;100.00
32492;BME280;20605;49.742;18.802;2023-03-16T00:48:34;98024.17;;;1.78;100.00
32492;BME280;20605;49.742;18.802;2023-03-16T00:51:01;98023.46;;;1.73;100.00
32492;BME280;20605;49.742;18.802;2023-03-16T00:53:29;98026.54;;;1.72;100.00
32492;BME280;20605;49.742;18.802;2023-03-16T00:55:55;98025.00;;;1.73;100.00
32492;BME280;20605;49.742;18.802;2023-03-16T00:58:21;98024.33;;;1.76;100.00
32492;BME280;20605;49.742;18.802;2023-03-16T01:00:47;98026.95;;;1.81;100.00
32492;BME280;20605;49.742;18.802;2023-03-16T01:03:13;98028.52;;;1.87;100.00
32492;BME280;20605;49.742;18.802;2023-03-16T01:05:40;98036.58;;;1.90;100.00
32492;BME280;20605;49.742;18.802;2023-03-16T01:08:09;98035.54;;;1.88;100.00
32492;BME280;20605;49.742;18.802;2023-03-16T01:10:35;98034.98;;;1.83;100.00
32492;BME280;20605;49.742;18.802;2023-03-16T01:13:01;98037.02;;;1.78;100.00
32492;BME280;20605;49.742;18.802;2023-03-16T01:15:30;98040.60;;;1.76;100.00
32492;BME280;20605;49.742;18.802;2023-03-16T01:17:56;98039.91;;;1.75;100.00
32492;BME280;20605;49.742;18.802;2023-03-16T01:20:22;98041.61;;;1.74;100.00
32492;BME280;20605;49.742;18.802;2023-03-16T01:22:48;98041.26;;;1.72;100.00
32492;BME280;20605;49.742;18.802;2023-03-16T01:25:14;98049.27;;;1.68;100.00
32492;BME280;20605;49.742;18.802;2023-03-16T01:27:41;98049.75;;;1.63;100.00
32492;BME280;20605;49.742;18.802;2023-03-16T01:30:08;98047.00;;;1.61;100.00
32492;BME280;20605;49.742;18.802;2023-03-16T01:32:38;98044.29;;;1.66;100.00
32492;BME280;20605;49.742;18.802;2023-03-16T01:35:06;98044.48;;;1.68;100.00
32492;BME280;20605;49.742;18.802;2023-03-16T01:37:32;98049.11;;;1.69;100.00
32492;BME280;20605;49.742;18.802;2023-03-16T01:40:05;98044.50;;;1.71;100.00
32492;BME280;20605;49.742;18.802;2023-03-16T01:42:31;98043.47;;;1.71;100.00
32492;BME280;20605;49.742;18.802;2023-03-16T01:44:59;98044.48;;;1.68;100.00
32492;BME280;20605;49.742;18.802;2023-03-16T01:47:35;98048.22;;;1.65;100.00
32492;BME280;20605;49.742;18.802;2023-03-16T01:50:04;98047.35;;;1.63;100.00
32492;BME280;20605;49.742;18.802;2023-03-16T01:52:35;98045.61;;;1.59;100.00
32492;BME280;20605;49.742;18.802;2023-03-16T01:55:08;98039.76;;;1.54;100.00
32492;BME280;20605;49.742;18.802;2023-03-16T01:57:38;98044.89;;;1.55;100.00
32492;BME280;20605;49.742;18.802;2023-03-16T02:00:16;98045.59;;;1.56;100.00
32492;BME280;20605;49.742;18.802;2023-03-16T02:03:15;98041.48;;;1.55;100.00
32492;BME280;20605;49.742;18.802;2023-03-16T02:06:00;98043.51;;;1.52;100.00
32492;BME280;20605;49.742;18.802;2023-03-16T02:08:29;98044.00;;;1.49;100.00
32492;BME280;20605;49.742;18.802;2023-03-16T02:10:56;98045.20;;;1.50;100.00
32492;BME280;20605;49.742;18.802;2023-03-16T02:13:26;98045.00;;;1.46;100.00
32492;BME280;20605;49.742;18.802;2023-03-16T02:15:54;98047.35;;;1.41;100.00
32492;BME280;20605;49.742;18.802;2023-03-16T02:18:20;98047.45;;;1.34;100.00
32492;BME280;20605;49.742;18.802;2023-03-16T02:23:23;98059.63;;;1.15;100.00
32492;BME280;20605;49.742;18.802;2023-03-16T02:31:27;98072.98;;;0.84;100.00
32492;BME280;20605;49.742;18.802;2023-03-16T02:33:55;98078.21;;;0.78;100.00
32492;BME280;20605;49.742;18.802;2023-03-16T02:36:22;98082.80;;;0.75;100.00
32492;BME280;20605;49.742;18.802;2023-03-16T02:38:48;98086.08;;;0.77;100.00
32492;BME280;20605;49.742;18.802;2023-03-16T02:41:18;98090.73;;;0.80;100.00
32492;BME280;20605;49.742;18.802;2023-03-16T02:43:56;98093.00;;;0.85;100.00
32492;BME280;20605;49.742;18.802;2023-03-16T02:46:27;98100.21;;;0.87;100.00
32492;BME280;20605;49.742;18.802;2023-03-16T02:49:14;98102.27;;;0.88;100.00
32492;BME280;20605;49.742;18.802;2023-03-16T02:51:46;98105.39;;;0.92;100.00
32492;BME280;20605;49.742;18.802;2023-03-16T02:54:12;98104.38;;;0.93;100.00
32492;BME280;20605;49.742;18.802;2023-03-16T02:56:39;98105.41;;;0.93;100.00
32492;BME280;20605;49.742;18.802;2023-03-16T02:59:05;98111.57;;;0.94;100.00
32492;BME280;20605;49.742;18.802;2023-03-16T03:01:31;98114.32;;;0.95;100.00
32492;BME280;20605;49.742;18.802;2023-03-16T03:04:00;98116.56;;;0.96;100.00
32492;BME280;20605;49.742;18.802;2023-03-16T03:06:26;98115.41;;;1.01;100.00
32492;BME280;20605;49.742;18.802;2023-03-16T03:08:53;98116.98;;;1.04;100.00
32492;BME280;20605;49.742;18.802;2023-03-16T03:11:19;98120.41;;;1.04;100.00
32492;BME280;20605;49.742;18.802;2023-03-16T03:13:46;98121.94;;;1.04;100.00
32492;BME280;20605;49.742;18.802;2023-03-16T03:16:15;98126.40;;;1.05;100.00
32492;BME280;20605;49.742;18.802;2023-03-16T03:18:41;98130.48;;;1.05;100.00
32492;BME280;20605;49.742;18.802;2023-03-16T03:21:07;98134.06;;;1.03;100.00
32492;BME280;20605;49.742;18.802;2023-03-16T03:23:33;98139.33;;;1.00;100.00
32492;BME280;20605;49.742;18.802;2023-03-16T03:26:02;98136.41;;;0.98;100.00
32492;BME280;20605;49.742;18.802;2023-03-16T03:28:30;98140.14;;;0.96;100.00
32492;BME280;20605;49.742;18.802;2023-03-16T03:30:56;98142.42;;;1.00;100.00
32492;BME280;20605;49.742;18.802;2023-03-16T03:33:22;98143.68;;;1.06;100.00
32492;BME280;20605;49.742;18.802;2023-03-16T03:35:54;98147.30;;;1.09;100.00
32492;BME280;20605;49.742;18.802;2023-03-16T03:38:21;98153.44;;;1.07;100.00
32492;BME280;20605;49.742;18.802;2023-03-16T03:40:49;98154.61;;;1.04;100.00
32492;BME280;20605;49.742;18.802;2023-03-16T03:43:15;98157.84;;;1.03;100.00
32492;BME280;20605;49.742;18.802;2023-03-16T03:45:42;98159.75;;;1.05;100.00
32492;BME280;20605;49.742;18.802;2023-03-16T03:48:08;98159.59;;;1.07;100.00
32492;BME280;20605;49.742;18.802;2023-03-16T03:50:33;98158.88;;;1.03;100.00
32492;BME280;20605;49.742;18.802;2023-03-16T03:53:15;98162.08;;;1.01;100.00
32492;BME280;20605;49.742;18.802;2023-03-16T03:56:03;98167.01;;;0.97;100.00
32492;BME280;20605;49.742;18.802;2023-03-16T03:58:29;98167.52;;;0.97;100.00
32492;BME280;20605;49.742;18.802;2023-03-16T04:00:55;98169.22;;;0.96;100.00
32492;BME280;20605;49.742;18.802;2023-03-16T04:03:21;98169.08;;;0.99;100.00
32492;BME280;20605;49.742;18.802;2023-03-16T04:05:47;98176.48;;;1.03;100.00
32492;BME280;20605;49.742;18.802;2023-03-16T04:08:13;98173.94;;;1.06;100.00
32492;BME280;20605;49.742;18.802;2023-03-16T04:10:39;98176.35;;;1.07;100.00
32492;BME280;20605;49.742;18.802;2023-03-16T04:13:06;98177.02;;;1.05;100.00
32492;BME280;20605;49.742;18.802;2023-03-16T04:15:32;98178.33;;;1.00;100.00
32492;BME280;20605;49.742;18.802;2023-03-16T04:18:30;98176.59;;;0.98;100.00
32492;BME280;20605;49.742;18.802;2023-03-16T04:21:09;98181.02;;;0.97;100.00
32492;BME280;20605;49.742;18.802;2023-03-16T04:23:38;98186.35;;;1.00;100.00
32492;BME280;20605;49.742;18.802;2023-03-16T04:26:04;98190.66;;;1.03;100.00
32492;BME280;20605;49.742;18.802;2023-03-16T04:28:31;98194.11;;;1.06;100.00
32492;BME280;20605;49.742;18.802;2023-03-16T04:31:05;98193.45;;;1.06;100.00
32492;BME280;20605;49.742;18.802;2023-03-16T04:33:36;98196.61;;;0.99;100.00
32492;BME280;20605;49.742;18.802;2023-03-16T04:36:04;98198.38;;;0.90;100.00
32492;BME280;20605;49.742;18.802;2023-03-16T04:38:32;98197.42;;;0.83;100.00
32492;BME280;20605;49.742;18.802;2023-03-16T04:41:02;98198.80;;;0.84;100.00
32492;BME280;20605;49.742;18.802;2023-03-16T04:43:32;98198.62;;;0.83;100.00
32492;BME280;20605;49.742;18.802;2023-03-16T04:46:03;98197.92;;;0.82;100.00
32492;BME280;20605;49.742;18.802;2023-03-16T04:48:31;98199.79;;;0.81;100.00
32492;BME280;20605;49.742;18.802;2023-03-16T04:50:57;98201.14;;;0.79;100.00
32492;BME280;20605;49.742;18.802;2023-03-16T04:53:24;98203.67;;;0.77;100.00
32492;BME280;20605;49.742;18.802;2023-03-16T04:55:54;98204.66;;;0.74;100.00
32492;BME280;20605;49.742;18.802;2023-03-16T04:58:20;98203.92;;;0.71;100.00
32492;BME280;20605;49.742;18.802;2023-03-16T05:00:48;98203.44;;;0.73;100.00
32492;BME280;20605;49.742;18.802;2023-03-16T05:03:20;98203.64;;;0.75;100.00
32492;BME280;20605;49.742;18.802;2023-03-16T05:05:48;98207.39;;;0.75;100.00
32492;BME280;20605;49.742;18.802;2023-03-16T05:08:14;98210.09;;;0.72;100.00
32492;BME280;20605;49.742;18.802;2023-03-16T05:10:41;98212.00;;;0.74;100.00
32492;BME280;20605;49.742;18.802;2023-03-16T05:13:09;98210.81;;;0.75;100.00
32492;BME280;20605;49.742;18.802;2023-03-16T05:15:36;98213.66;;;0.71;100.00
32492;BME280;20605;49.742;18.802;2023-03-16T05:18:21;98219.05;;;0.65;100.00
32492;BME280;20605;49.742;18.802;2023-03-16T05:20:52;98222.19;;;0.69;100.00
32492;BME280;20605;49.742;18.802;2023-03-16T05:23:21;98225.58;;;0.79;100.00
32492;BME280;20605;49.742;18.802;2023-03-16T05:25:53;98225.91;;;0.91;100.00
32492;BME280;20605;49.742;18.802;2023-03-16T05:28:20;98224.20;;;1.04;100.00
32492;BME280;20605;49.742;18.802;2023-03-16T05:30:52;98227.27;;;1.17;100.00
32492;BME280;20605;49.742;18.802;2023-03-16T05:33:22;98232.85;;;1.27;100.00
32492;BME280;20605;49.742;18.802;2023-03-16T05:35:50;98233.80;;;1.37;100.00
32492;BME280;20605;49.742;18.802;2023-03-16T05:38:18;98237.48;;;1.44;100.00
32492;BME280;20605;49.742;18.802;2023-03-16T05:40:44;98238.48;;;1.43;100.00
32492;BME280;20605;49.742;18.802;2023-03-16T05:43:24;98240.55;;;1.44;100.00
32492;BME280;20605;49.742;18.802;2023-03-16T05:45:52;98244.87;;;1.48;100.00
32492;BME280;20605;49.742;18.802;2023-03-16T05:48:18;98249.40;;;1.54;100.00
32492;BME280;20605;49.742;18.802;2023-03-16T05:50:49;98254.58;;;1.58;100.00
32492;BME280;20605;49.742;18.802;2023-03-16T05:53:16;98258.00;;;1.59;100.00
32492;BME280;20605;49.742;18.802;2023-03-16T05:55:42;98254.55;;;1.57;100.00
32492;BME280;20605;49.742;18.802;2023-03-16T05:58:10;98260.58;;;1.59;100.00
32492;BME280;20605;49.742;18.802;2023-03-16T06:00:36;98265.36;;;1.58;100.00
32492;BME280;20605;49.742;18.802;2023-03-16T06:03:25;98262.40;;;1.54;100.00
32492;BME280;20605;49.742;18.802;2023-03-16T06:05:51;98266.27;;;1.49;100.00
32492;BME280;20605;49.742;18.802;2023-03-16T06:08:22;98271.75;;;1.48;100.00
32492;BME280;20605;49.742;18.802;2023-03-16T06:10:49;98273.13;;;1.49;100.00
32492;BME280;20605;49.742;18.802;2023-03-16T06:13:16;98276.05;;;1.51;100.00
32492;BME280;20605;49.742;18.802;2023-03-16T06:15:41;98280.48;;;1.50;100.00
32492;BME280;20605;49.742;18.802;2023-03-16T06:18:08;98277.96;;;1.53;100.00
32492;BME280;20605;49.742;18.802;2023-03-16T06:20:35;98284.48;;;1.54;100.00
32492;BME280;20605;49.742;18.802;2023-03-16T06:23:01;98288.40;;;1.53;100.00
32492;BME280;20605;49.742;18.802;2023-03-16T06:25:27;98291.50;;;1.54;100.00
32492;BME280;20605;49.742;18.802;2023-03-16T06:27:53;98294.10;;;1.57;100.00
32492;BME280;20605;49.742;18.802;2023-03-16T06:30:19;98299.86;;;1.66;100.00
32492;BME280;20605;49.742;18.802;2023-03-16T06:32:45;98301.25;;;1.85;100.00
32492;BME280;20605;49.742;18.802;2023-03-16T06:35:12;98300.17;;;2.12;100.00
32492;BME280;20605;49.742;18.802;2023-03-16T06:37:42;98302.94;;;2.55;100.00
32492;BME280;20605;49.742;18.802;2023-03-16T06:40:43;98303.73;;;2.97;100.00
32492;BME280;20605;49.742;18.802;2023-03-16T06:43:16;98306.55;;;3.09;100.00
32492;BME280;20605;49.742;18.802;2023-03-16T06:45:42;98306.95;;;3.16;100.00
32492;BME280;20605;49.742;18.802;2023-03-16T06:48:08;98309.94;;;3.29;100.00
32492;BME280;20605;49.742;18.802;2023-03-16T06:50:34;98313.27;;;3.42;100.00
32492;BME280;20605;49.742;18.802;2023-03-16T06:53:01;98312.98;;;3.57;100.00
32492;BME280;20605;49.742;18.802;2023-03-16T06:55:29;98314.39;;;3.64;100.00
32492;BME280;20605;49.742;18.802;2023-03-16T06:57:54;98315.20;;;3.56;100.00
32492;BME280;20605;49.742;18.802;2023-03-16T07:00:20;98319.63;;;3.46;100.00
32492;BME280;20605;49.742;18.802;2023-03-16T07:02:46;98322.86;;;3.39;100.00
32492;BME280;20605;49.742;18.802;2023-03-16T07:05:12;98326.63;;;3.39;100.00
32492;BME280;20605;49.742;18.802;2023-03-16T07:07:40;98333.70;;;3.45;100.00
32492;BME280;20605;49.742;18.802;2023-03-16T07:10:12;98332.05;;;3.59;100.00
32492;BME280;20605;49.742;18.802;2023-03-16T07:12:38;98332.46;;;3.75;100.00
32492;BME280;20605;49.742;18.802;2023-03-16T07:15:05;98333.23;;;4.07;100.00
32492;BME280;20605;49.742;18.802;2023-03-16T07:17:31;98336.02;;;4.32;100.00
32492;BME280;20605;49.742;18.802;2023-03-16T07:19:58;98338.45;;;4.50;100.00
32492;BME280;20605;49.742;18.802;2023-03-16T07:22:23;98340.70;;;4.58;100.00
32492;BME280;20605;49.742;18.802;2023-03-16T07:24:50;98346.70;;;4.49;100.00
32492;BME280;20605;49.742;18.802;2023-03-16T07:27:23;98345.65;;;4.31;100.00
32492;BME280;20605;49.742;18.802;2023-03-16T07:29:50;98347.01;;;4.19;100.00
32492;BME280;20605;49.742;18.802;2023-03-16T07:32:19;98346.83;;;4.18;100.00
32492;BME280;20605;49.742;18.802;2023-03-16T07:34:46;98350.09;;;4.18;100.00
32492;BME280;20605;49.742;18.802;2023-03-16T07:37:13;98351.45;;;4.12;100.00
32492;BME280;20605;49.742;18.802;2023-03-16T07:39:41;98348.17;;;4.10;100.00
32492;BME280;20605;49.742;18.802;2023-03-16T07:42:13;98350.26;;;4.13;100.00
32492;BME280;20605;49.742;18.802;2023-03-16T07:44:51;98351.84;;;4.30;100.00
32492;BME280;20605;49.742;18.802;2023-03-16T07:47:17;98352.91;;;4.59;100.00
32492;BME280;20605;49.742;18.802;2023-03-16T07:49:43;98349.79;;;5.12;100.00
32492;BME280;20605;49.742;18.802;2023-03-16T07:52:10;98352.38;;;5.73;100.00
32492;BME280;20605;49.742;18.802;2023-03-16T07:54:39;98352.98;;;6.05;100.00
32492;BME280;20605;49.742;18.802;2023-03-16T07:57:06;98356.42;;;6.04;100.00
32492;BME280;20605;49.742;18.802;2023-03-16T07:59:37;98360.09;;;5.89;100.00
32492;BME280;20605;49.742;18.802;2023-03-16T08:02:03;98360.63;;;5.79;100.00
32492;BME280;20605;49.742;18.802;2023-03-16T08:04:29;98359.61;;;5.75;100.00
32492;BME280;20605;49.742;18.802;2023-03-16T08:06:56;98359.58;;;5.84;100.00
32492;BME280;20605;49.742;18.802;2023-03-16T08:09:27;98364.15;;;6.09;100.00
32492;BME280;20605;49.742;18.802;2023-03-16T08:11:53;98365.30;;;6.21;100.00
32492;BME280;20605;49.742;18.802;2023-03-16T08:14:19;98363.38;;;6.26;100.00
32492;BME280;20605;49.742;18.802;2023-03-16T08:17:07;98366.20;;;6.13;100.00
32492;BME280;20605;49.742;18.802;2023-03-16T08:19:33;98368.63;;;6.12;100.00
32492;BME280;20605;49.742;18.802;2023-03-16T08:21:59;98375.39;;;6.36;100.00
32492;BME280;20605;49.742;18.802;2023-03-16T08:24:27;98366.71;;;6.45;100.00
32492;BME280;20605;49.742;18.802;2023-03-16T08:26:55;98368.39;;;6.51;100.00
32492;BME280;20605;49.742;18.802;2023-03-16T08:29:22;98370.02;;;6.64;100.00
32492;BME280;20605;49.742;18.802;2023-03-16T08:31:54;98374.98;;;6.69;100.00
32492;BME280;20605;49.742;18.802;2023-03-16T08:34:27;98374.00;;;6.61;100.00
32492;BME280;20605;49.742;18.802;2023-03-16T08:36:54;98376.02;;;6.44;100.00
32492;BME280;20605;49.742;18.802;2023-03-16T08:39:20;98378.58;;;6.21;99.96
32492;BME280;20605;49.742;18.802;2023-03-16T08:41:46;98378.12;;;6.09;99.96
32492;BME280;20605;49.742;18.802;2023-03-16T08:44:21;98377.94;;;6.12;100.00
32492;BME280;20605;49.742;18.802;2023-03-16T08:46:48;98377.60;;;6.08;100.00
32492;BME280;20605;49.742;18.802;2023-03-16T08:49:16;98379.19;;;6.01;100.00
32492;BME280;20605;49.742;18.802;2023-03-16T08:51:46;98378.01;;;5.94;100.00
32492;BME280;20605;49.742;18.802;2023-03-16T08:54:12;98378.71;;;5.88;99.95
32492;BME280;20605;49.742;18.802;2023-03-16T08:56:38;98381.49;;;5.75;100.00
32492;BME280;20605;49.742;18.802;2023-03-16T08:59:03;98386.33;;;5.70;100.00
32492;BME280;20605;49.742;18.802;2023-03-16T09:01:30;98384.33;;;5.47;99.95
32492;BME280;20605;49.742;18.802;2023-03-16T09:03:56;98385.90;;;5.29;99.91
32492;BME280;20605;49.742;18.802;2023-03-16T09:06:22;98389.64;;;5.53;99.94
32492;BME280;20605;49.742;18.802;2023-03-16T09:08:48;98395.31;;;6.20;99.91
32492;BME280;20605;49.742;18.802;2023-03-16T09:11:16;98394.65;;;7.43;100.00
32492;BME280;20605;49.742;18.802;2023-03-16T09:13:43;98391.16;;;8.97;98.10
32492;BME280;20605;49.742;18.802;2023-03-16T09:16:11;98391.38;;;10.09;96.68
32492;BME280;20605;49.742;18.802;2023-03-16T09:18:37;98393.27;;;12.09;93.25
32492;BME280;20605;49.742;18.802;2023-03-16T09:21:07;98390.49;;;12.63;91.12
32492;BME280;20605;49.742;18.802;2023-03-16T09:23:33;98387.39;;;13.11;91.37
32492;BME280;20605;49.742;18.802;2023-03-16T09:26:04;98385.45;;;13.18;89.15
32492;BME280;20605;49.742;18.802;2023-03-16T09:28:32;98390.54;;;12.85;88.09
32492;BME280;20605;49.742;18.802;2023-03-16T09:30:59;98391.83;;;12.18;86.54
32492;BME280;20605;49.742;18.802;2023-03-16T09:33:26;98397.43;;;11.18;85.45
32492;BME280;20605;49.742;18.802;2023-03-16T09:35:56;98399.33;;;10.61;87.31
32492;BME280;20605;49.742;18.802;2023-03-16T09:38:23;98397.23;;;10.99;87.91
32492;BME280;20605;49.742;18.802;2023-03-16T09:46:44;98391.44;;;13.10;83.97
32492;BME280;20605;49.742;18.802;2023-03-16T09:49:12;98394.22;;;14.54;83.80
32492;BME280;20605;49.742;18.802;2023-03-16T09:51:55;98392.44;;;15.75;81.76
32492;BME280;20605;49.742;18.802;2023-03-16T09:54:37;98390.14;;;16.39;79.16
32492;BME280;20605;49.742;18.802;2023-03-16T09:57:23;98392.98;;;16.46;76.17
32492;BME280;20605;49.742;18.802;2023-03-16T09:59:50;98400.27;;;15.56;76.19
32492;BME280;20605;49.742;18.802;2023-03-16T10:05:10;98401.19;;;14.54;75.58
32492;BME280;20605;49.742;18.802;2023-03-16T10:07:43;98401.46;;;13.60;75.78
32492;BME280;20605;49.742;18.802;2023-03-16T10:10:19;98399.00;;;12.87;76.53
32492;BME280;20605;49.742;18.802;2023-03-16T10:12:49;98400.14;;;12.44;75.80
32492;BME280;20605;49.742;18.802;2023-03-16T10:15:19;98399.66;;;12.31;76.38
32492;BME280;20605;49.742;18.802;2023-03-16T10:18:27;98398.90;;;12.15;76.07
32492;BME280;20605;49.742;18.802;2023-03-16T10:20:44;98401.85;;;11.57;76.13
32492;BME280;20605;49.742;18.802;2023-03-16T10:23:17;98405.04;;;11.07;76.10
32492;BME280;20605;49.742;18.802;2023-03-16T10:25:51;98408.85;;;10.47;75.83
32492;BME280;20605;49.742;18.802;2023-03-16T10:28:27;98411.58;;;9.90;75.97
32492;BME280;20605;49.742;18.802;2023-03-16T10:30:58;98409.92;;;9.47;76.08
32492;BME280;20605;49.742;18.802;2023-03-16T10:33:27;98407.33;;;9.17;76.31
32492;BME280;20605;49.742;18.802;2023-03-16T10:44:03;98410.58;;;8.65;79.19
32492;BME280;20605;49.742;18.802;2023-03-16T10:46:45;98413.45;;;8.57;79.54
32492;BME280;20605;49.742;18.802;2023-03-16T10:49:34;98409.32;;;8.68;80.54
32492;BME280;20605;49.742;18.802;2023-03-16T10:52:07;98402.02;;;8.82;80.43
32492;BME280;20605;49.742;18.802;2023-03-16T10:54:35;98402.17;;;8.94;80.31
32492;BME280;20605;49.742;18.802;2023-03-16T10:57:34;98399.58;;;9.05;79.89
32492;BME280;20605;49.742;18.802;2023-03-16T11:00:27;98403.10;;;9.01;78.69
32492;BME280;20605;49.742;18.802;2023-03-16T11:02:57;98402.23;;;9.01;77.49
32492;BME280;20605;49.742;18.802;2023-03-16T11:05:33;98400.45;;;9.05;77.52
32492;BME280;20605;49.742;18.802;2023-03-16T11:08:30;98399.70;;;8.97;77.36
32492;BME280;20605;49.742;18.802;2023-03-16T11:10:58;98402.18;;;8.71;77.30
32492;BME280;20605;49.742;18.802;2023-03-16T11:13:36;98406.77;;;8.38;78.22
32492;BME280;20605;49.742;18.802;2023-03-16T11:18:49;98410.54;;;7.68;80.13
32492;BME280;20605;49.742;18.802;2023-03-16T11:23:55;98411.85;;;7.01;80.14
32492;BME280;20605;49.742;18.802;2023-03-16T11:26:30;98412.84;;;6.84;80.96
32492;BME280;20605;49.742;18.802;2023-03-16T11:34:21;98401.66;;;7.23;80.63
32492;BME280;20605;49.742;18.802;2023-03-16T11:36:56;98394.36;;;7.28;79.23
32492;BME280;20605;49.742;18.802;2023-03-16T11:40:02;98397.50;;;7.24;79.17
32492;BME280;20605;49.742;18.802;2023-03-16T11:42:58;98393.29;;;7.31;79.68
32492;BME280;20605;49.742;18.802;2023-03-16T11:46:14;98391.66;;;7.40;79.72
32492;BME280;20605;49.742;18.802;2023-03-16T11:48:21;98394.98;;;7.36;79.61
32492;BME280;20605;49.742;18.802;2023-03-16T11:53:48;98387.96;;;7.28;79.48
32492;BME280;20605;49.742;18.802;2023-03-16T12:01:46;98379.27;;;7.35;78.95
32492;BME280;20605;49.742;18.802;2023-03-16T12:07:03;98380.91;;;7.60;78.21
32492;BME280;20605;49.742;18.802;2023-03-16T12:09:41;98378.92;;;7.68;77.14
32492;BME280;20605;49.742;18.802;2023-03-16T12:12:35;98378.02;;;7.56;76.32
32492;BME280;20605;49.742;18.802;2023-03-16T12:17:54;98375.30;;;7.68;76.98
32492;BME280;20605;49.742;18.802;2023-03-16T12:20:26;98374.11;;;7.79;76.96
32492;BME280;20605;49.742;18.802;2023-03-16T12:23:07;98375.16;;;7.93;76.97
32492;BME280;20605;49.742;18.802;2023-03-16T12:25:38;98373.30;;;8.03;76.42
32492;BME280;20605;49.742;18.802;2023-03-16T12:28:12;98372.98;;;8.14;76.29
32492;BME280;20605;49.742;18.802;2023-03-16T12:43:53;98350.55;;;8.95;73.15
32492;BME280;20605;49.742;18.802;2023-03-16T12:49:05;98356.98;;;8.83;72.79
32492;BME280;20605;49.742;18.802;2023-03-16T12:51:40;98357.55;;;8.67;72.13
32492;BME280;20605;49.742;18.802;2023-03-16T12:54:22;98366.11;;;8.38;72.31
32492;BME280;20605;49.742;18.802;2023-03-16T12:56:49;98372.14;;;8.12;72.54
32492;BME280;20605;49.742;18.802;2023-03-16T12:59:23;98373.68;;;8.00;73.42
32492;BME280;20605;49.742;18.802;2023-03-16T13:01:56;98373.61;;;7.92;72.87
32492;BME280;20605;49.742;18.802;2023-03-16T13:04:31;98373.83;;;7.75;72.26
32492;BME280;20605;49.742;18.802;2023-03-16T13:07:04;98374.14;;;7.63;72.13
32492;BME280;20605;49.742;18.802;2023-03-16T13:09:35;98374.80;;;7.50;71.28
32492;BME280;20605;49.742;18.802;2023-03-16T13:12:06;98376.41;;;7.26;71.43
32492;BME280;20605;49.742;18.802;2023-03-16T13:14:40;98376.63;;;7.22;72.37
32492;BME280;20605;49.742;18.802;2023-03-16T13:19:42;98375.89;;;7.61;72.32
32492;BME280;20605;49.742;18.802;2023-03-16T13:22:26;98381.91;;;7.63;71.93
32492;BME280;20605;49.742;18.802;2023-03-16T13:27:28;98374.93;;;7.37;71.49
32492;BME280;20605;49.742;18.802;2023-03-16T13:29:59;98375.63;;;7.36;72.41
32492;BME280;20605;49.742;18.802;2023-03-16T13:32:31;98373.73;;;7.53;72.81
32492;BME280;20605;49.742;18.802;2023-03-16T13:34:59;98378.39;;;7.70;72.75
32492;BME280;20605;49.742;18.802;2023-03-16T13:37:28;98379.52;;;7.75;72.22
32492;BME280;20605;49.742;18.802;2023-03-16T13:40:01;98376.30;;;7.70;72.28
32492;BME280;20605;49.742;18.802;2023-03-16T13:42:32;98376.07;;;7.61;72.27
32492;BME280;20605;49.742;18.802;2023-03-16T13:45:10;98373.95;;;7.48;72.73
32492;BME280;20605;49.742;18.802;2023-03-16T13:47:41;98373.50;;;7.41;73.26
32492;BME280;20605;49.742;18.802;2023-03-16T13:50:11;98372.27;;;7.60;73.39
32492;BME280;20605;49.742;18.802;2023-03-16T13:52:39;98365.57;;;7.72;72.52
32492;BME280;20605;49.742;18.802;2023-03-16T13:55:14;98366.38;;;7.76;72.05
32492;BME280;20605;49.742;18.802;2023-03-16T13:57:42;98365.69;;;7.77;71.80
32492;BME280;20605;49.742;18.802;2023-03-16T14:00:21;98364.61;;;7.79;71.69
32492;BME280;20605;49.742;18.802;2023-03-16T14:02:56;98365.95;;;7.82;71.70
32492;BME280;20605;49.742;18.802;2023-03-16T14:05:33;98371.85;;;7.80;72.47
32492;BME280;20605;49.742;18.802;2023-03-16T14:08:00;98369.10;;;7.79;72.71
32492;BME280;20605;49.742;18.802;2023-03-16T14:10:31;98368.76;;;7.79;72.01
32492;BME280;20605;49.742;18.802;2023-03-16T14:13:24;98369.43;;;7.80;71.90
32492;BME280;20605;49.742;18.802;2023-03-16T14:18:38;98366.02;;;7.90;71.33
32492;BME280;20605;49.742;18.802;2023-03-16T14:21:07;98363.38;;;7.95;71.24
32492;BME280;20605;49.742;18.802;2023-03-16T14:23:39;98363.95;;;8.03;71.51